sensor_id;sensor_type;location;lat;lon;timestamp;pressure;altitude;pressure_sealevel;temperature;humidity
8398;BME280;4236;54.504;9.588;2023-04-01T00:02:02;99637.72;;;6.73;100.00
8398;BME280;4236;54.504;9.588;2023-04-01T00:04:30;99630.56;;;6.67;100.00
8398;BME280;4236;54.504;9.588;2023-04-01T00:06:58;99624.03;;;6.63;100.00
8398;BME280;4236;54.504;9.588;2023-04-01T00:09:27;99629.75;;;6.60;100.00
8398;BME280;4236;54.504;9.588;2023-04-01T00:11:56;99637.44;;;6.55;100.00
8398;BME280;4236;54.504;9.588;2023-04-01T00:14:24;99630.53;;;6.54;100.00
8398;BME280;4236;54.504;9.588;2023-04-01T00:16:53;99638.22;;;6.49;100.00
8398;BME280;4236;54.504;9.588;2023-04-01T00:19:21;99629.63;;;6.40;100.00
8398;BME280;4236;54.504;9.588;2023-04-01T00:21:48;99631.66;;;6.38;100.00
8398;BME280;4236;54.504;9.588;2023-04-01T00:24:16;99650.16;;;6.32;100.00
8398;BME280;4236;54.504;9.588;2023-04-01T00:26:44;99666.00;;;6.25;100.00
8398;BME280;4236;54.504;9.588;2023-04-01T00:29:11;99657.84;;;6.20;100.00
8398;BME280;4236;54.504;9.588;2023-04-01T00:31:39;99664.78;;;6.21;100.00
8398;BME280;4236;54.504;9.588;2023-04-01T00:34:08;99655.97;;;6.14;100.00
8398;BME280;4236;54.504;9.588;2023-04-01T00:36:36;99654.31;;;6.13;100.00
8398;BME280;4236;54.504;9.588;2023-04-01T00:39:04;99654.97;;;6.15;100.00
8398;BME280;4236;54.504;9.588;2023-04-01T00:41:32;99658.00;;;6.12;100.00
8398;BME280;4236;54.504;9.588;2023-04-01T00:44:16;99663.03;;;6.07;100.00
8398;BME280;4236;54.504;9.588;2023-04-01T00:46:45;99664.06;;;6.06;100.00
8398;BME280;4236;54.504;9.588;2023-04-01T00:49:15;99652.84;;;6.04;100.00
8398;BME280;4236;54.504;9.588;2023-04-01T00:51:45;99659.34;;;6.01;100.00
8398;BME280;4236;54.504;9.588;2023-04-01T00:54:15;99655.66;;;5.96;100.00
8398;BME280;4236;54.504;9.588;2023-04-01T00:56:46;99664.78;;;5.93;100.00
8398;BME280;4236;54.504;9.588;2023-04-01T00:59:20;99671.28;;;5.91;100.00
8398;BME280;4236;54.504;9.588;2023-04-01T01:01:49;99665.34;;;5.89;100.00
8398;BME280;4236;54.504;9.588;2023-04-01T01:04:24;99668.72;;;5.83;100.00
8398;BME280;4236;54.504;9.588;2023-04-01T01:06:59;99698.13;;;5.88;100.00
8398;BME280;4236;54.504;9.588;2023-04-01T01:09:35;99673.63;;;5.79;100.00
8398;BME280;4236;54.504;9.588;2023-04-01T01:12:11;99680.34;;;5.82;100.00
8398;BME280;4236;54.504;9.588;2023-04-01T01:14:50;99685.19;;;5.78;100.00
8398;BME280;4236;54.504;9.588;2023-04-01T01:17:26;99682.56;;;5.78;100.00
8398;BME280;4236;54.504;9.588;2023-04-01T01:23:19;99679.41;;;5.68;100.00
8398;BME280;4236;54.504;9.588;2023-04-01T01:25:58;99683.94;;;5.74;100.00
8398;BME280;4236;54.504;9.588;2023-04-01T01:28:45;99689.97;;;5.68;100.00
8398;BME280;4236;54.504;9.588;2023-04-01T01:31:20;99682.44;;;5.65;100.00
8398;BME280;4236;54.504;9.588;2023-04-01T01:34:00;99693.38;;;5.62;100.00
8398;BME280;4236;54.504;9.588;2023-04-01T01:36:33;99698.44;;;5.57;100.00
8398;BME280;4236;54.504;9.588;2023-04-01T01:39:03;99688.31;;;5.61;100.00
8398;BME280;4236;54.504;9.588;2023-04-01T01:41:33;99712.66;;;5.56;100.00
8398;BME280;4236;54.504;9.588;2023-04-01T01:44:03;99695.72;;;5.50;100.00
8398;BME280;4236;54.504;9.588;2023-04-01T01:46:32;99693.38;;;5.41;100.00
8398;BME280;4236;54.504;9.588;2023-04-01T01:49:01;99674.88;;;5.41;100.00
8398;BME280;4236;54.504;9.588;2023-04-01T01:51:32;99704.41;;;5.44;100.00
8398;BME280;4236;54.504;9.588;2023-04-01T01:53:59;99705.22;;;5.45;100.00
8398;BME280;4236;54.504;9.588;2023-04-01T01:56:29;99720.47;;;5.43;100.00
8398;BME280;4236;54.504;9.588;2023-04-01T01:58:59;99706.06;;;5.45;100.00
8398;BME280;4236;54.504;9.588;2023-04-01T02:01:29;99715.63;;;5.46;100.00
8398;BME280;4236;54.504;9.588;2023-04-01T02:03:59;99730.59;;;5.39;100.00
8398;BME280;4236;54.504;9.588;2023-04-01T02:06:29;99732.44;;;5.39;100.00
8398;BME280;4236;54.504;9.588;2023-04-01T02:09:02;99733.03;;;5.41;100.00
8398;BME280;4236;54.504;9.588;2023-04-01T02:11:34;99733.41;;;5.38;100.00
8398;BME280;4236;54.504;9.588;2023-04-01T02:14:08;99739.09;;;5.35;100.00
8398;BME280;4236;54.504;9.588;2023-04-01T02:16:42;99743.28;;;5.29;100.00
8398;BME280;4236;54.504;9.588;2023-04-01T02:19:13;99745.31;;;5.27;100.00
8398;BME280;4236;54.504;9.588;2023-04-01T02:21:42;99739.59;;;5.24;100.00
8398;BME280;4236;54.504;9.588;2023-04-01T02:24:13;99740.94;;;5.20;100.00
8398;BME280;4236;54.504;9.588;2023-04-01T02:26:42;99768.56;;;5.17;100.00
8398;BME280;4236;54.504;9.588;2023-04-01T02:29:12;99772.59;;;5.13;100.00
8398;BME280;4236;54.504;9.588;2023-04-01T02:31:41;99764.31;;;5.16;100.00
8398;BME280;4236;54.504;9.588;2023-04-01T02:34:09;99763.84;;;5.13;100.00
8398;BME280;4236;54.504;9.588;2023-04-01T02:36:38;99771.16;;;5.11;100.00
8398;BME280;4236;54.504;9.588;2023-04-01T02:39:06;99772.88;;;5.03;100.00
8398;BME280;4236;54.504;9.588;2023-04-01T02:41:40;99780.72;;;5.12;100.00
8398;BME280;4236;54.504;9.588;2023-04-01T02:44:08;99768.59;;;5.02;100.00
8398;BME280;4236;54.504;9.588;2023-04-01T02:46:36;99787.00;;;4.96;100.00
8398;BME280;4236;54.504;9.588;2023-04-01T02:49:04;99780.94;;;4.95;100.00
8398;BME280;4236;54.504;9.588;2023-04-01T02:51:32;99797.69;;;4.88;100.00
8398;BME280;4236;54.504;9.588;2023-04-01T02:54:00;99799.50;;;4.87;100.00
8398;BME280;4236;54.504;9.588;2023-04-01T02:56:27;99797.50;;;4.89;100.00
8398;BME280;4236;54.504;9.588;2023-04-01T02:58:56;99795.66;;;4.90;100.00
8398;BME280;4236;54.504;9.588;2023-04-01T03:01:24;99804.59;;;4.89;100.00
8398;BME280;4236;54.504;9.588;2023-04-01T03:03:52;99816.44;;;4.78;100.00
8398;BME280;4236;54.504;9.588;2023-04-01T03:06:19;99828.66;;;4.79;100.00
8398;BME280;4236;54.504;9.588;2023-04-01T03:08:47;99821.72;;;4.78;100.00
8398;BME280;4236;54.504;9.588;2023-04-01T03:11:15;99841.59;;;4.74;100.00
8398;BME280;4236;54.504;9.588;2023-04-01T03:13:43;99837.13;;;4.75;100.00
8398;BME280;4236;54.504;9.588;2023-04-01T03:16:12;99832.00;;;4.73;100.00
8398;BME280;4236;54.504;9.588;2023-04-01T03:18:39;99831.75;;;4.68;100.00
8398;BME280;4236;54.504;9.588;2023-04-01T03:21:14;99832.47;;;4.62;100.00
8398;BME280;4236;54.504;9.588;2023-04-01T03:23:43;99850.22;;;4.54;100.00
8398;BME280;4236;54.504;9.588;2023-04-01T03:26:10;99845.44;;;4.49;100.00
8398;BME280;4236;54.504;9.588;2023-04-01T03:28:38;99847.47;;;4.47;100.00
8398;BME280;4236;54.504;9.588;2023-04-01T03:31:07;99859.38;;;4.43;100.00
8398;BME280;4236;54.504;9.588;2023-04-01T03:33:36;99864.38;;;4.38;100.00
8398;BME280;4236;54.504;9.588;2023-04-01T03:36:04;99857.97;;;4.32;100.00
8398;BME280;4236;54.504;9.588;2023-04-01T03:38:33;99860.97;;;4.29;100.00
8398;BME280;4236;54.504;9.588;2023-04-01T03:41:01;99863.44;;;4.31;100.00
8398;BME280;4236;54.504;9.588;2023-04-01T03:43:28;99876.97;;;4.28;100.00
8398;BME280;4236;54.504;9.588;2023-04-01T03:45:56;99879.81;;;4.26;100.00
8398;BME280;4236;54.504;9.588;2023-04-01T03:48:25;99893.50;;;4.22;100.00
8398;BME280;4236;54.504;9.588;2023-04-01T03:50:54;99887.59;;;4.20;100.00
8398;BME280;4236;54.504;9.588;2023-04-01T03:53:21;99883.97;;;4.21;100.00
8398;BME280;4236;54.504;9.588;2023-04-01T03:55:49;99875.03;;;4.22;100.00
8398;BME280;4236;54.504;9.588;2023-04-01T03:58:18;99896.81;;;4.24;100.00
8398;BME280;4236;54.504;9.588;2023-04-01T04:00:46;99897.69;;;4.16;100.00
8398;BME280;4236;54.504;9.588;2023-04-01T04:03:13;99901.31;;;4.15;100.00
8398;BME280;4236;54.504;9.588;2023-04-01T04:05:46;99903.78;;;4.17;100.00
8398;BME280;4236;54.504;9.588;2023-04-01T04:08:15;99916.03;;;4.10;100.00
8398;BME280;4236;54.504;9.588;2023-04-01T04:10:43;99909.91;;;4.09;100.00
8398;BME280;4236;54.504;9.588;2023-04-01T04:13:12;99906.94;;;4.12;100.00
8398;BME280;4236;54.504;9.588;2023-04-01T04:15:40;99911.06;;;4.15;100.00
8398;BME280;4236;54.504;9.588;2023-04-01T04:18:08;99910.53;;;4.19;100.00
8398;BME280;4236;54.504;9.588;2023-04-01T04:20:35;99924.25;;;4.15;100.00
8398;BME280;4236;54.504;9.588;2023-04-01T04:23:03;99930.03;;;4.10;100.00
8398;BME280;4236;54.504;9.588;2023-04-01T04:25:32;99931.69;;;4.11;100.00
8398;BME280;4236;54.504;9.588;2023-04-01T04:28:00;99928.22;;;4.11;100.00
8398;BME280;4236;54.504;9.588;2023-04-01T04:30:28;99935.50;;;4.09;100.00
8398;BME280;4236;54.504;9.588;2023-04-01T04:32:55;99939.97;;;4.08;100.00
8398;BME280;4236;54.504;9.588;2023-04-01T04:35:23;99943.78;;;4.06;100.00
8398;BME280;4236;54.504;9.588;2023-04-01T04:37:51;99949.06;;;4.06;100.00
8398;BME280;4236;54.504;9.588;2023-04-01T04:40:18;99969.69;;;4.02;100.00
8398;BME280;4236;54.504;9.588;2023-04-01T04:42:47;99963.09;;;3.98;100.00
8398;BME280;4236;54.504;9.588;2023-04-01T04:45:15;99965.09;;;3.96;100.00
8398;BME280;4236;54.504;9.588;2023-04-01T04:47:43;99961.28;;;3.99;100.00
8398;BME280;4236;54.504;9.588;2023-04-01T04:50:11;99968.22;;;4.00;100.00
8398;BME280;4236;54.504;9.588;2023-04-01T04:52:39;99962.41;;;4.04;100.00
8398;BME280;4236;54.504;9.588;2023-04-01T04:55:07;99958.28;;;4.02;100.00
8398;BME280;4236;54.504;9.588;2023-04-01T04:57:35;99977.09;;;3.99;100.00
8398;BME280;4236;54.504;9.588;2023-04-01T05:00:05;99981.56;;;3.98;100.00
8398;BME280;4236;54.504;9.588;2023-04-01T05:02:33;99982.44;;;3.90;100.00
8398;BME280;4236;54.504;9.588;2023-04-01T05:05:02;99972.19;;;3.96;100.00
8398;BME280;4236;54.504;9.588;2023-04-01T05:07:30;99987.38;;;3.94;100.00
8398;BME280;4236;54.504;9.588;2023-04-01T05:09:58;99994.75;;;3.98;100.00
8398;BME280;4236;54.504;9.588;2023-04-01T05:12:25;99995.56;;;3.99;100.00
8398;BME280;4236;54.504;9.588;2023-04-01T05:14:53;99995.91;;;3.96;100.00
8398;BME280;4236;54.504;9.588;2023-04-01T05:17:22;100001.19;;;3.96;100.00
8398;BME280;4236;54.504;9.588;2023-04-01T05:19:50;100003.34;;;3.92;100.00
8398;BME280;4236;54.504;9.588;2023-04-01T05:22:17;99999.53;;;3.95;100.00
8398;BME280;4236;54.504;9.588;2023-04-01T05:24:45;100004.81;;;3.95;100.00
8398;BME280;4236;54.504;9.588;2023-04-01T05:27:13;100006.47;;;3.96;100.00
8398;BME280;4236;54.504;9.588;2023-04-01T05:29:40;100009.09;;;3.96;100.00
8398;BME280;4236;54.504;9.588;2023-04-01T05:32:08;100005.66;;;3.95;100.00
8398;BME280;4236;54.504;9.588;2023-04-01T05:34:37;100024.63;;;3.90;100.00
8398;BME280;4236;54.504;9.588;2023-04-01T05:37:05;100028.41;;;3.96;100.00
8398;BME280;4236;54.504;9.588;2023-04-01T05:39:36;100017.66;;;3.98;100.00
8398;BME280;4236;54.504;9.588;2023-04-01T05:42:05;100029.03;;;3.98;100.00
8398;BME280;4236;54.504;9.588;2023-04-01T05:44:33;100025.56;;;3.98;100.00
8398;BME280;4236;54.504;9.588;2023-04-01T05:47:01;100020.97;;;4.00;100.00
8398;BME280;4236;54.504;9.588;2023-04-01T05:49:30;100041.25;;;3.99;100.00
8398;BME280;4236;54.504;9.588;2023-04-01T05:51:59;100045.88;;;3.97;100.00
8398;BME280;4236;54.504;9.588;2023-04-01T05:54:27;100051.16;;;3.97;100.00
8398;BME280;4236;54.504;9.588;2023-04-01T05:56:55;100061.53;;;3.99;100.00
8398;BME280;4236;54.504;9.588;2023-04-01T05:59:23;100053.28;;;4.02;100.00
8398;BME280;4236;54.504;9.588;2023-04-01T06:01:50;100055.91;;;4.02;100.00
8398;BME280;4236;54.504;9.588;2023-04-01T06:04:18;100062.16;;;4.01;100.00
8398;BME280;4236;54.504;9.588;2023-04-01T06:06:46;100060.19;;;4.03;100.00
8398;BME280;4236;54.504;9.588;2023-04-01T06:09:17;100062.16;;;4.01;100.00
8398;BME280;4236;54.504;9.588;2023-04-01T06:12:00;100064.66;;;4.02;100.00
8398;BME280;4236;54.504;9.588;2023-04-01T06:14:39;100070.09;;;4.01;100.00
8398;BME280;4236;54.504;9.588;2023-04-01T06:17:22;100082.47;;;4.00;100.00
8398;BME280;4236;54.504;9.588;2023-04-01T06:20:00;100091.88;;;4.03;100.00
8398;BME280;4236;54.504;9.588;2023-04-01T06:22:47;100101.06;;;4.07;100.00
8398;BME280;4236;54.504;9.588;2023-04-01T06:25:29;100085.41;;;4.05;100.00
8398;BME280;4236;54.504;9.588;2023-04-01T06:31:03;100104.38;;;4.01;100.00
8398;BME280;4236;54.504;9.588;2023-04-01T06:33:43;100119.88;;;4.04;100.00
8398;BME280;4236;54.504;9.588;2023-04-01T06:36:45;100100.41;;;4.05;100.00
8398;BME280;4236;54.504;9.588;2023-04-01T06:39:28;100122.50;;;4.04;100.00
8398;BME280;4236;54.504;9.588;2023-04-01T06:42:21;100117.22;;;4.04;100.00
8398;BME280;4236;54.504;9.588;2023-04-01T06:44:58;100123.34;;;4.04;100.00
8398;BME280;4236;54.504;9.588;2023-04-01T06:47:40;100138.66;;;4.01;100.00
8398;BME280;4236;54.504;9.588;2023-04-01T06:50:18;100133.06;;;4.04;100.00
8398;BME280;4236;54.504;9.588;2023-04-01T06:52:52;100142.44;;;4.06;100.00
8398;BME280;4236;54.504;9.588;2023-04-01T06:55:27;100135.69;;;4.04;100.00
8398;BME280;4236;54.504;9.588;2023-04-01T06:58:03;100142.97;;;4.02;100.00
8398;BME280;4236;54.504;9.588;2023-04-01T07:00:34;100131.59;;;4.01;100.00
8398;BME280;4236;54.504;9.588;2023-04-01T07:03:12;100151.53;;;4.04;100.00
8398;BME280;4236;54.504;9.588;2023-04-01T07:05:43;100156.81;;;4.04;100.00
8398;BME280;4236;54.504;9.588;2023-04-01T07:08:13;100160.13;;;4.06;100.00
8398;BME280;4236;54.504;9.588;2023-04-01T07:10:47;100146.94;;;4.06;100.00
8398;BME280;4236;54.504;9.588;2023-04-01T07:13:22;100187.81;;;4.02;100.00
8398;BME280;4236;54.504;9.588;2023-04-01T07:15:57;100178.91;;;4.03;100.00
8398;BME280;4236;54.504;9.588;2023-04-01T07:18:32;100176.63;;;4.00;100.00
8398;BME280;4236;54.504;9.588;2023-04-01T07:21:04;100167.22;;;3.97;100.00
8398;BME280;4236;54.504;9.588;2023-04-01T07:23:40;100179.75;;;3.95;100.00
8398;BME280;4236;54.504;9.588;2023-04-01T07:26:15;100190.47;;;3.94;100.00
8398;BME280;4236;54.504;9.588;2023-04-01T07:28:46;100193.63;;;3.97;100.00
8398;BME280;4236;54.504;9.588;2023-04-01T07:31:20;100208.63;;;3.97;100.00
8398;BME280;4236;54.504;9.588;2023-04-01T07:33:57;100213.56;;;4.00;100.00
8398;BME280;4236;54.504;9.588;2023-04-01T07:36:33;100211.56;;;4.02;100.00
8398;BME280;4236;54.504;9.588;2023-04-01T07:39:10;100212.56;;;4.09;100.00
8398;BME280;4236;54.504;9.588;2023-04-01T07:41:51;100202.34;;;4.06;100.00
8398;BME280;4236;54.504;9.588;2023-04-01T07:44:25;100209.09;;;4.00;100.00
8398;BME280;4236;54.504;9.588;2023-04-01T07:47:08;100259.06;;;3.94;100.00
8398;BME280;4236;54.504;9.588;2023-04-01T07:49:46;100232.00;;;3.91;100.00
8398;BME280;4236;54.504;9.588;2023-04-01T07:52:23;100252.31;;;3.91;100.00
8398;BME280;4236;54.504;9.588;2023-04-01T07:54:58;100231.53;;;3.88;100.00
8398;BME280;4236;54.504;9.588;2023-04-01T07:57:34;100235.66;;;3.90;100.00
8398;BME280;4236;54.504;9.588;2023-04-01T08:00:11;100254.63;;;3.94;100.00
8398;BME280;4236;54.504;9.588;2023-04-01T08:02:52;100258.72;;;3.88;100.00
8398;BME280;4236;54.504;9.588;2023-04-01T08:05:27;100256.56;;;3.92;100.00
8398;BME280;4236;54.504;9.588;2023-04-01T08:08:01;100264.00;;;3.88;100.00
8398;BME280;4236;54.504;9.588;2023-04-01T08:10:36;100227.41;;;3.85;100.00
8398;BME280;4236;54.504;9.588;2023-04-01T08:13:13;100274.41;;;3.82;100.00
8398;BME280;4236;54.504;9.588;2023-04-01T08:15:52;100271.75;;;3.82;100.00
8398;BME280;4236;54.504;9.588;2023-04-01T08:18:31;100286.25;;;3.78;100.00
8398;BME280;4236;54.504;9.588;2023-04-01T08:21:10;100280.81;;;3.79;100.00
8398;BME280;4236;54.504;9.588;2023-04-01T08:23:41;100275.38;;;3.81;100.00
8398;BME280;4236;54.504;9.588;2023-04-01T08:26:14;100278.84;;;3.81;100.00
8398;BME280;4236;54.504;9.588;2023-04-01T08:28:51;100251.78;;;3.79;100.00
8398;BME280;4236;54.504;9.588;2023-04-01T08:31:29;100294.97;;;3.70;100.00
8398;BME280;4236;54.504;9.588;2023-04-01T08:33:58;100282.47;;;3.72;100.00
8398;BME280;4236;54.504;9.588;2023-04-01T08:36:31;100305.88;;;3.75;100.00
8398;BME280;4236;54.504;9.588;2023-04-01T08:39:04;100321.69;;;3.75;100.00
8398;BME280;4236;54.504;9.588;2023-04-01T08:41:49;100287.88;;;3.71;100.00
8398;BME280;4236;54.504;9.588;2023-04-01T08:44:37;100329.44;;;3.69;100.00
8398;BME280;4236;54.504;9.588;2023-04-01T08:47:23;100310.00;;;3.70;100.00
8398;BME280;4236;54.504;9.588;2023-04-01T08:50:18;100319.72;;;3.61;100.00
8398;BME280;4236;54.504;9.588;2023-04-01T08:52:58;100310.97;;;3.61;100.00
8398;BME280;4236;54.504;9.588;2023-04-01T08:55:36;100325.31;;;3.66;100.00
8398;BME280;4236;54.504;9.588;2023-04-01T09:01:11;100348.22;;;3.66;100.00
8398;BME280;4236;54.504;9.588;2023-04-01T09:06:51;100337.84;;;3.72;100.00
8398;BME280;4236;54.504;9.588;2023-04-01T09:12:42;100334.72;;;3.77;100.00
8398;BME280;4236;54.504;9.588;2023-04-01T09:15:20;100344.75;;;3.73;100.00
8398;BME280;4236;54.504;9.588;2023-04-01T09:18:22;100351.53;;;3.76;100.00
8398;BME280;4236;54.504;9.588;2023-04-01T09:21:05;100352.69;;;3.81;100.00
8398;BME280;4236;54.504;9.588;2023-04-01T09:23:52;100369.81;;;3.85;100.00
8398;BME280;4236;54.504;9.588;2023-04-01T09:26:35;100364.06;;;3.82;100.00
8398;BME280;4236;54.504;9.588;2023-04-01T09:29:23;100354.66;;;3.79;100.00
8398;BME280;4236;54.504;9.588;2023-04-01T09:32:10;100374.78;;;3.80;100.00
8398;BME280;4236;54.504;9.588;2023-04-01T09:34:52;100395.22;;;3.78;100.00
8398;BME280;4236;54.504;9.588;2023-04-01T09:37:31;100386.63;;;3.76;100.00
8398;BME280;4236;54.504;9.588;2023-04-01T09:40:21;100398.31;;;3.74;100.00
8398;BME280;4236;54.504;9.588;2023-04-01T09:43:05;100416.13;;;3.72;100.00
8398;BME280;4236;54.504;9.588;2023-04-01T09:45:42;100404.75;;;3.79;100.00
8398;BME280;4236;54.504;9.588;2023-04-01T09:48:20;100386.47;;;3.70;100.00
8398;BME280;4236;54.504;9.588;2023-04-01T09:50:56;100419.94;;;3.77;100.00
8398;BME280;4236;54.504;9.588;2023-04-01T09:53:41;100425.06;;;3.87;100.00
8398;BME280;4236;54.504;9.588;2023-04-01T09:56:36;100415.53;;;3.94;100.00
8398;BME280;4236;54.504;9.588;2023-04-01T09:59:37;100427.75;;;4.03;100.00
8398;BME280;4236;54.504;9.588;2023-04-01T10:02:41;100431.84;;;3.98;100.00
8398;BME280;4236;54.504;9.588;2023-04-01T10:05:39;100457.44;;;3.97;100.00
8398;BME280;4236;54.504;9.588;2023-04-01T10:08:46;100437.13;;;3.98;100.00
8398;BME280;4236;54.504;9.588;2023-04-01T10:11:30;100440.72;;;3.88;100.00
8398;BME280;4236;54.504;9.588;2023-04-01T10:14:27;100440.06;;;3.78;100.00
8398;BME280;4236;54.504;9.588;2023-04-01T10:17:40;100429.66;;;3.77;100.00
8398;BME280;4236;54.504;9.588;2023-04-01T10:20:30;100412.03;;;3.85;100.00
8398;BME280;4236;54.504;9.588;2023-04-01T10:23:17;100444.31;;;3.79;100.00
8398;BME280;4236;54.504;9.588;2023-04-01T10:26:05;100429.50;;;3.78;100.00
8398;BME280;4236;54.504;9.588;2023-04-01T10:28:53;100456.66;;;3.71;100.00
8398;BME280;4236;54.504;9.588;2023-04-01T10:31:46;100462.63;;;3.73;100.00
8398;BME280;4236;54.504;9.588;2023-04-01T10:34:56;100439.38;;;3.76;100.00
8398;BME280;4236;54.504;9.588;2023-04-01T10:37:44;100469.06;;;3.78;100.00
8398;BME280;4236;54.504;9.588;2023-04-01T10:40:38;100468.88;;;3.80;100.00
8398;BME280;4236;54.504;9.588;2023-04-01T10:43:48;100465.59;;;3.78;100.00
8398;BME280;4236;54.504;9.588;2023-04-01T10:49:44;100467.78;;;3.90;100.00
8398;BME280;4236;54.504;9.588;2023-04-01T11:01:46;100491.66;;;3.81;100.00
8398;BME280;4236;54.504;9.588;2023-04-01T11:08:08;100500.53;;;3.80;100.00
8398;BME280;4236;54.504;9.588;2023-04-01T11:10:57;100489.03;;;3.81;100.00
8398;BME280;4236;54.504;9.588;2023-04-01T11:13:52;100497.91;;;3.80;100.00
8398;BME280;4236;54.504;9.588;2023-04-01T11:19:45;100500.72;;;3.78;100.00
8398;BME280;4236;54.504;9.588;2023-04-01T11:22:34;100520.16;;;3.77;100.00
8398;BME280;4236;54.504;9.588;2023-04-01T11:25:11;100509.59;;;3.77;100.00
8398;BME280;4236;54.504;9.588;2023-04-01T11:28:08;100516.88;;;3.83;100.00
8398;BME280;4236;54.504;9.588;2023-04-01T11:31:04;100529.75;;;3.86;100.00
8398;BME280;4236;54.504;9.588;2023-04-01T11:33:44;100537.34;;;3.89;100.00
8398;BME280;4236;54.504;9.588;2023-04-01T11:36:24;100547.25;;;3.87;100.00
8398;BME280;4236;54.504;9.588;2023-04-01T11:39:03;100552.53;;;3.87;100.00
8398;BME280;4236;54.504;9.588;2023-04-01T11:41:41;100553.84;;;3.91;100.00
8398;BME280;4236;54.504;9.588;2023-04-01T11:44:16;100551.91;;;4.02;100.00
8398;BME280;4236;54.504;9.588;2023-04-01T11:46:59;100551.91;;;4.02;100.00
8398;BME280;4236;54.504;9.588;2023-04-01T11:49:40;100550.44;;;4.07;100.00
8398;BME280;4236;54.504;9.588;2023-04-01T11:52:20;100548.00;;;4.14;100.00
8398;BME280;4236;54.504;9.588;2023-04-01T11:55:10;100555.94;;;4.22;100.00
8398;BME280;4236;54.504;9.588;2023-04-01T11:57:51;100556.13;;;4.20;100.00
8398;BME280;4236;54.504;9.588;2023-04-01T12:00:44;100558.88;;;4.11;100.00
8398;BME280;4236;54.504;9.588;2023-04-01T12:03:37;100567.00;;;4.17;100.00
8398;BME280;4236;54.504;9.588;2023-04-01T12:06:14;100570.47;;;4.26;100.00
8398;BME280;4236;54.504;9.588;2023-04-01T12:08:51;100571.47;;;4.25;100.00
8398;BME280;4236;54.504;9.588;2023-04-01T12:11:28;100581.22;;;4.32;100.00
8398;BME280;4236;54.504;9.588;2023-04-01T12:14:03;100579.25;;;4.42;100.00
8398;BME280;4236;54.504;9.588;2023-04-01T12:16:45;100594.97;;;4.44;100.00
8398;BME280;4236;54.504;9.588;2023-04-01T12:19:23;100539.66;;;4.34;100.00
8398;BME280;4236;54.504;9.588;2023-04-01T12:22:11;100595.38;;;4.23;100.00
8398;BME280;4236;54.504;9.588;2023-04-01T12:24:46;100603.00;;;4.26;100.00
8398;BME280;4236;54.504;9.588;2023-04-01T12:27:27;100603.66;;;4.36;100.00
8398;BME280;4236;54.504;9.588;2023-04-01T12:33:26;100608.28;;;4.34;100.00
8398;BME280;4236;54.504;9.588;2023-04-01T12:36:07;100620.66;;;4.34;100.00
8398;BME280;4236;54.504;9.588;2023-04-01T12:38:47;100633.53;;;4.37;100.00
8398;BME280;4236;54.504;9.588;2023-04-01T12:41:29;100610.78;;;4.36;100.00
8398;BME280;4236;54.504;9.588;2023-04-01T12:44:23;100625.50;;;4.46;100.00
8398;BME280;4236;54.504;9.588;2023-04-01T12:47:14;100618.41;;;4.55;100.00
8398;BME280;4236;54.504;9.588;2023-04-01T12:49:56;100607.53;;;4.50;100.00
8398;BME280;4236;54.504;9.588;2023-04-01T12:52:38;100634.44;;;4.54;100.00
8398;BME280;4236;54.504;9.588;2023-04-01T12:55:36;100626.34;;;4.55;100.00
8398;BME280;4236;54.504;9.588;2023-04-01T12:58:24;100636.91;;;4.63;100.00
8398;BME280;4236;54.504;9.588;2023-04-01T13:01:15;100633.63;;;4.69;100.00
8398;BME280;4236;54.504;9.588;2023-04-01T13:03:58;100649.97;;;4.65;100.00
8398;BME280;4236;54.504;9.588;2023-04-01T13:06:39;100661.72;;;4.70;100.00
8398;BME280;4236;54.504;9.588;2023-04-01T13:09:19;100661.06;;;4.68;100.00
8398;BME280;4236;54.504;9.588;2023-04-01T13:12:05;100656.31;;;4.80;100.00
8398;BME280;4236;54.504;9.588;2023-04-01T13:17:52;100678.84;;;4.58;100.00
8398;BME280;4236;54.504;9.588;2023-04-01T13:20:30;100685.72;;;4.51;100.00
8398;BME280;4236;54.504;9.588;2023-04-01T13:23:13;100665.28;;;4.53;100.00
8398;BME280;4236;54.504;9.588;2023-04-01T13:25:49;100689.34;;;4.42;100.00
8398;BME280;4236;54.504;9.588;2023-04-01T13:28:43;100688.66;;;4.40;100.00
8398;BME280;4236;54.504;9.588;2023-04-01T13:31:27;100667.03;;;4.36;100.00
8398;BME280;4236;54.504;9.588;2023-04-01T13:34:08;100696.91;;;4.37;100.00
8398;BME280;4236;54.504;9.588;2023-04-01T13:36:50;100688.75;;;4.22;100.00
8398;BME280;4236;54.504;9.588;2023-04-01T13:39:29;100710.69;;;4.23;100.00
8398;BME280;4236;54.504;9.588;2023-04-01T13:42:12;100717.34;;;4.09;100.00
8398;BME280;4236;54.504;9.588;2023-04-01T13:44:46;100731.19;;;4.03;100.00
8398;BME280;4236;54.504;9.588;2023-04-01T13:47:24;100706.13;;;4.07;100.00
8398;BME280;4236;54.504;9.588;2023-04-01T13:56:14;100719.13;;;4.01;100.00
8398;BME280;4236;54.504;9.588;2023-04-01T13:58:54;100742.06;;;4.00;100.00
8398;BME280;4236;54.504;9.588;2023-04-01T14:01:32;100732.53;;;4.07;100.00
8398;BME280;4236;54.504;9.588;2023-04-01T14:04:24;100756.94;;;4.09;100.00
8398;BME280;4236;54.504;9.588;2023-04-01T14:07:04;100721.69;;;4.18;100.00
8398;BME280;4236;54.504;9.588;2023-04-01T14:10:02;100743.19;;;4.23;100.00
8398;BME280;4236;54.504;9.588;2023-04-01T14:12:39;100740.28;;;4.34;100.00
8398;BME280;4236;54.504;9.588;2023-04-01T14:15:23;100757.94;;;4.34;100.00
8398;BME280;4236;54.504;9.588;2023-04-01T14:18:07;100735.97;;;4.33;100.00
8398;BME280;4236;54.504;9.588;2023-04-01T14:20:46;100752.03;;;4.40;100.00
8398;BME280;4236;54.504;9.588;2023-04-01T14:23:36;100768.03;;;4.38;100.00
8398;BME280;4236;54.504;9.588;2023-04-01T14:26:28;100758.78;;;4.34;100.00
8398;BME280;4236;54.504;9.588;2023-04-01T14:29:07;100763.84;;;4.28;100.00
8398;BME280;4236;54.504;9.588;2023-04-01T14:31:47;100773.88;;;4.24;100.00
8398;BME280;4236;54.504;9.588;2023-04-01T14:34:25;100786.25;;;4.24;100.00
8398;BME280;4236;54.504;9.588;2023-04-01T14:37:07;100780.81;;;4.25;100.00
8398;BME280;4236;54.504;9.588;2023-04-01T14:40:04;100792.00;;;4.19;100.00
8398;BME280;4236;54.504;9.588;2023-04-01T14:42:59;100794.19;;;4.24;100.00
8398;BME280;4236;54.504;9.588;2023-04-01T14:45:59;100801.72;;;4.19;100.00
8398;BME280;4236;54.504;9.588;2023-04-01T14:48:34;100796.69;;;4.33;100.00
8398;BME280;4236;54.504;9.588;2023-04-01T14:51:10;100792.31;;;4.42;100.00
8398;BME280;4236;54.504;9.588;2023-04-01T14:53:44;100798.84;;;4.56;100.00